Time;durP1;ratioP1;P1;durP2;ratioP2;P2;SDS_P1;SDS_P2;PMS_P1;PMS_P2;Temp;Humidity;BMP_temperature;BMP_pressure;BME280_temperature;BME280_humidity;BME280_pressure;Samples;Min_cycle;Max_cycle;Signal;HPM_P1;HPM_P2
2022/01/31 00:00:12;;;;;;;5.60;1.67;;;4.30;99.90;;;;;;4961235;29;20110;-84
2022/01/31 00:02:51;;;;;;;12.60;1.50;;;4.30;99.90;;;;;;4959697;29;20445;-82
2022/01/31 00:05:17;;;;;;;8.97;2.37;;;4.30;99.90;;;;;;4963356;29;20058;-84
2022/01/31 00:07:44;;;;;;;12.63;2.70;;;4.30;99.90;;;;;;4961324;29;20402;-82
2022/01/31 00:10:13;;;;;;;8.03;2.20;;;4.30;99.90;;;;;;4961377;29;20051;-85
2022/01/31 00:12:49;;;;;;;12.00;1.73;;;4.30;99.90;;;;;;4967624;29;20063;-85
2022/01/31 00:15:17;;;;;;;9.63;1.90;;;4.30;99.90;;;;;;4966090;29;20071;-83
2022/01/31 00:17:47;;;;;;;4.23;1.50;;;4.30;99.90;;;;;;4968611;29;20071;-86
2022/01/31 00:20:14;;;;;;;6.57;2.10;;;4.30;99.90;;;;;;4966707;29;20051;-85
2022/01/31 00:22:42;;;;;;;9.97;1.50;;;4.30;99.90;;;;;;4970514;29;20051;-88
2022/01/31 00:25:12;;;;;;;5.20;1.57;;;4.30;99.90;;;;;;4968834;28;20055;-85
2022/01/31 00:27:39;;;;;;;5.43;2.17;;;4.30;99.90;;;;;;4971107;28;20055;-86
2022/01/31 00:30:08;;;;;;;5.50;1.50;;;4.30;99.90;;;;;;4972883;29;20082;-86
2022/01/31 00:32:35;;;;;;;6.33;2.73;;;4.20;99.90;;;;;;4956011;29;20051;-85
2022/01/31 00:35:09;;;;;;;8.53;1.70;;;4.30;99.90;;;;;;4964885;29;20047;-85
2022/01/31 00:37:36;;;;;;;10.97;2.17;;;4.20;99.90;;;;;;4966134;28;20074;-84
2022/01/31 00:40:03;;;;;;;10.23;2.10;;;4.30;99.90;;;;;;4970573;28;20071;-86
2022/01/31 00:42:30;;;;;;;5.57;1.57;;;4.20;99.90;;;;;;4970473;28;20098;-85
2022/01/31 00:45:08;;;;;;;11.13;2.10;;;4.20;99.90;;;;;;4972619;28;20051;-85
2022/01/31 00:47:34;;;;;;;5.93;1.70;;;4.20;99.90;;;;;;4965705;28;20051;-86
2022/01/31 00:50:21;;;;;;;6.90;2.87;;;4.20;99.90;;;;;;4973271;28;20049;-84
2022/01/31 00:52:48;;;;;;;10.57;1.70;;;4.20;99.90;;;;;;4964060;29;20062;-85
2022/01/31 00:55:18;;;;;;;11.20;4.60;;;4.10;99.90;;;;;;4969163;29;20048;-84
2022/01/31 00:57:45;;;;;;;8.83;4.03;;;4.10;99.90;;;;;;4963620;28;20055;-86
2022/01/31 01:00:14;;;;;;;5.13;2.67;;;4.10;99.90;;;;;;4975401;28;20078;-84
2022/01/31 01:02:41;;;;;;;6.60;1.93;;;4.10;99.90;;;;;;4951303;29;20174;-86
2022/01/31 01:05:08;;;;;;;9.17;1.77;;;4.10;99.90;;;;;;4967826;29;20055;-86
2022/01/31 01:07:36;;;;;;;9.77;3.03;;;4.10;99.90;;;;;;4970272;29;20138;-83
2022/01/31 01:10:04;;;;;;;8.10;1.73;;;4.00;99.90;;;;;;4946528;29;20048;-85
2022/01/31 01:12:31;;;;;;;13.43;2.40;;;4.10;99.90;;;;;;4966264;29;20390;-84
2022/01/31 01:14:58;;;;;;;7.80;3.03;;;4.00;99.90;;;;;;4966663;28;20055;-87
2022/01/31 01:17:24;;;;;;;11.40;2.53;;;4.10;99.90;;;;;;4966920;28;20602;-85
2022/01/31 01:19:52;;;;;;;10.33;1.60;;;4.00;99.90;;;;;;4968768;29;20050;-84
2022/01/31 01:22:18;;;;;;;16.90;2.10;;;4.00;99.90;;;;;;4966627;29;20482;-85
2022/01/31 01:24:48;;;;;;;9.10;2.03;;;4.00;99.90;;;;;;4968228;29;20062;-85
2022/01/31 01:27:15;;;;;;;12.77;2.93;;;4.00;99.90;;;;;;4950621;29;20043;-85
2022/01/31 01:29:42;;;;;;;5.70;2.23;;;4.00;99.90;;;;;;4970468;29;20418;-86
2022/01/31 01:32:09;;;;;;;2.93;1.43;;;4.00;99.90;;;;;;4943586;29;20487;-88
2022/01/31 01:34:36;;;;;;;14.07;2.30;;;4.00;99.90;;;;;;4970574;29;20062;-85
2022/01/31 01:37:04;;;;;;;7.67;1.70;;;4.00;99.90;;;;;;4967741;29;20044;-86
2022/01/31 01:39:30;;;;;;;4.30;1.63;;;3.90;99.90;;;;;;4967061;29;20066;-85
2022/01/31 01:41:58;;;;;;;7.13;3.00;;;3.90;99.90;;;;;;4964549;29;20067;-85
2022/01/31 01:44:45;;;;;;;9.57;3.47;;;3.90;99.90;;;;;;4965749;28;20059;-84
2022/01/31 01:47:11;;;;;;;4.87;1.53;;;3.60;99.90;;;;;;4968011;29;20039;-84
2022/01/31 01:49:39;;;;;;;7.00;1.33;;;3.50;99.90;;;;;;4968558;28;20046;-83
2022/01/31 01:52:06;;;;;;;18.77;2.60;;;3.50;99.90;;;;;;4943413;29;20076;-85
2022/01/31 01:54:33;;;;;;;10.10;3.30;;;3.50;99.90;;;;;;4952936;29;20075;-84
2022/01/31 01:57:02;;;;;;;4.63;1.73;;;3.60;99.90;;;;;;4956427;29;20044;-84
2022/01/31 01:59:29;;;;;;;6.43;2.20;;;3.60;99.90;;;;;;4955642;28;20059;-84
2022/01/31 02:01:55;;;;;;;10.40;1.83;;;3.50;99.90;;;;;;4956092;29;20055;-84
2022/01/31 02:04:23;;;;;;;7.67;1.83;;;3.60;99.90;;;;;;4938270;29;20138;-87
2022/01/31 02:06:50;;;;;;;11.77;2.70;;;3.50;99.90;;;;;;4952371;29;20055;-84
2022/01/31 02:09:22;;;;;;;3.27;1.17;;;3.50;99.90;;;;;;4955810;29;20062;-83
2022/01/31 02:11:54;;;;;;;15.88;2.55;;;3.50;99.90;;;;;;4954224;29;20078;-86
2022/01/31 02:14:21;;;;;;;7.73;1.63;;;3.40;99.90;;;;;;4936969;29;20386;-85
2022/01/31 02:16:50;;;;;;;10.20;2.50;;;3.50;99.90;;;;;;4958811;29;20062;-86
2022/01/31 02:19:20;;;;;;;7.83;1.67;;;3.50;99.90;;;;;;4968138;28;20063;-86
2022/01/31 02:21:51;;;;;;;14.80;2.13;;;3.50;99.90;;;;;;4945236;29;20050;-85
2022/01/31 02:24:17;;;;;;;12.23;2.07;;;3.50;99.90;;;;;;4967434;28;20055;-82
2022/01/31 02:26:45;;;;;;;9.50;1.97;;;3.50;99.90;;;;;;4973162;28;20043;-85
2022/01/31 02:29:11;;;;;;;21.90;3.37;;;3.50;99.90;;;;;;4945731;29;20065;-86
2022/01/31 02:31:42;;;;;;;3.17;2.30;;;3.40;99.90;;;;;;4956890;29;20054;-85
2022/01/31 02:34:08;;;;;;;6.27;2.27;;;3.40;99.90;;;;;;4956050;28;20497;-84
2022/01/31 02:36:35;;;;;;;13.23;2.30;;;3.40;99.90;;;;;;4962627;29;20086;-85
2022/01/31 02:39:04;;;;;;;12.17;2.13;;;3.40;99.90;;;;;;4947620;29;20083;-84
2022/01/31 02:41:31;;;;;;;7.90;1.60;;;3.40;99.90;;;;;;4967994;28;20132;-85
2022/01/31 02:44:00;;;;;;;8.47;2.90;;;3.40;99.90;;;;;;4950045;29;20039;-86
2022/01/31 02:46:27;;;;;;;14.30;3.17;;;3.50;99.90;;;;;;4962711;29;20051;-86
2022/01/31 02:48:56;;;;;;;9.20;2.50;;;3.50;99.90;;;;;;4962929;29;20047;-83
2022/01/31 02:51:25;;;;;;;12.57;3.53;;;3.50;99.90;;;;;;4954942;29;20063;-82
2022/01/31 02:53:51;;;;;;;9.27;1.63;;;3.40;99.90;;;;;;4954351;28;20056;-84
2022/01/31 02:56:19;;;;;;;8.90;2.17;;;3.50;99.90;;;;;;4953764;28;20051;-83
2022/01/31 02:58:45;;;;;;;10.13;1.47;;;3.50;99.90;;;;;;4953038;29;20058;-85
2022/01/31 03:01:14;;;;;;;7.60;1.57;;;3.50;99.90;;;;;;4954079;29;20048;-84
2022/01/31 03:03:41;;;;;;;9.67;4.47;;;3.50;99.90;;;;;;4952298;29;20055;-85
2022/01/31 03:06:07;;;;;;;8.27;2.17;;;3.50;99.90;;;;;;4934792;29;20055;-84
2022/01/31 03:08:33;;;;;;;10.17;1.77;;;3.50;99.90;;;;;;4929949;29;20405;-82
2022/01/31 03:11:00;;;;;;;17.07;2.73;;;3.50;99.90;;;;;;4968562;28;20482;-84
2022/01/31 03:13:27;;;;;;;16.00;2.90;;;3.50;99.90;;;;;;4944977;29;20145;-83
2022/01/31 03:15:53;;;;;;;12.63;3.10;;;3.50;99.90;;;;;;4958797;28;20055;-83
2022/01/31 03:18:20;;;;;;;5.43;2.17;;;3.50;99.90;;;;;;4958150;29;20055;-85
2022/01/31 03:20:46;;;;;;;11.43;2.00;;;3.50;99.90;;;;;;4959383;29;20059;-83
2022/01/31 03:23:13;;;;;;;17.73;3.50;;;3.50;99.90;;;;;;4951261;29;20051;-84
2022/01/31 03:25:39;;;;;;;10.33;2.50;;;3.50;99.90;;;;;;4952992;29;20068;-85
2022/01/31 03:28:07;;;;;;;3.97;1.33;;;3.50;99.90;;;;;;4934049;28;20047;-85
2022/01/31 03:30:34;;;;;;;9.47;3.83;;;3.60;99.90;;;;;;4937856;29;20206;-87
2022/01/31 03:33:00;;;;;;;5.50;3.13;;;3.50;99.90;;;;;;4957072;28;20524;-84
2022/01/31 03:35:27;;;;;;;13.37;2.53;;;3.50;99.90;;;;;;4967574;29;20082;-85
2022/01/31 03:37:53;;;;;;;11.30;1.83;;;3.50;99.90;;;;;;4957744;28;20086;-84
2022/01/31 03:40:20;;;;;;;11.90;2.50;;;3.50;99.90;;;;;;4954287;29;20060;-85
2022/01/31 03:42:46;;;;;;;5.43;2.27;;;3.50;99.90;;;;;;4953473;29;20133;-85
2022/01/31 03:45:13;;;;;;;8.60;2.73;;;3.40;99.90;;;;;;4936606;29;20051;-83
2022/01/31 03:47:44;;;;;;;7.60;2.03;;;3.40;99.90;;;;;;4936508;29;20086;-86
2022/01/31 03:50:12;;;;;;;14.35;2.60;;;3.40;99.90;;;;;;4953884;29;20052;-88
2022/01/31 03:52:38;;;;;;;4.27;2.40;;;3.40;99.90;;;;;;4953554;29;20066;-86
2022/01/31 03:55:06;;;;;;;12.20;3.20;;;3.50;99.90;;;;;;4953606;29;20055;-85
2022/01/31 03:57:33;;;;;;;8.57;2.00;;;3.50;99.90;;;;;;4953822;29;20059;-86
2022/01/31 04:00:04;;;;;;;14.20;3.37;;;3.40;99.90;;;;;;4952783;28;20055;-85
2022/01/31 04:02:31;;;;;;;10.68;1.95;;;3.50;99.90;;;;;;4957112;29;20051;-88
2022/01/31 04:04:59;;;;;;;6.57;1.73;;;3.50;99.90;;;;;;4957182;28;20043;-87
2022/01/31 04:07:25;;;;;;;12.50;2.27;;;3.40;99.90;;;;;;4961077;28;20490;-85
2022/01/31 04:09:53;;;;;;;8.37;2.60;;;3.40;99.90;;;;;;4944116;29;20055;-87
2022/01/31 04:12:19;;;;;;;7.93;1.80;;;3.50;99.90;;;;;;4947016;29;20114;-87
2022/01/31 04:14:45;;;;;;;8.03;2.67;;;3.40;99.90;;;;;;4938367;29;20063;-88
2022/01/31 04:17:12;;;;;;;8.13;2.23;;;3.40;99.90;;;;;;4956352;29;20051;-86
2022/01/31 04:19:38;;;;;;;9.93;2.50;;;3.30;99.90;;;;;;4955637;29;20474;-85
2022/01/31 04:22:10;;;;;;;16.60;1.80;;;3.30;99.90;;;;;;4956680;28;20089;-84
2022/01/31 04:24:40;;;;;;;8.67;1.47;;;3.30;99.90;;;;;;4956473;29;20079;-84
2022/01/31 04:27:06;;;;;;;11.57;2.70;;;3.30;99.90;;;;;;4956156;28;20134;-84
2022/01/31 04:29:34;;;;;;;14.87;2.63;;;3.20;99.90;;;;;;4954562;29;20059;-79
2022/01/31 04:32:01;;;;;;;15.00;2.70;;;3.20;99.90;;;;;;4954411;29;20102;-79
2022/01/31 04:34:29;;;;;;;17.07;2.27;;;3.10;99.90;;;;;;4952444;29;20070;-79
2022/01/31 04:36:55;;;;;;;11.13;2.30;;;3.10;99.90;;;;;;4953904;29;20496;-87
2022/01/31 04:39:27;;;;;;;10.50;2.67;;;3.00;99.90;;;;;;4954094;28;20051;-85
2022/01/31 04:41:54;;;;;;;18.37;3.93;;;3.00;99.90;;;;;;4958435;29;20063;-91
2022/01/31 04:44:21;;;;;;;4.30;1.80;;;2.90;99.90;;;;;;4947887;29;20055;-91
2022/01/31 04:46:52;;;;;;;11.93;2.00;;;2.90;99.90;;;;;;4970342;28;20106;-92
2022/01/31 04:49:19;;;;;;;10.88;2.25;;;2.80;99.90;;;;;;4960314;28;20405;-86
2022/01/31 04:51:52;;;;;;;7.43;2.67;;;2.80;99.90;;;;;;4976261;28;20075;-93
2022/01/31 04:54:20;;;;;;;7.40;2.27;;;2.80;99.90;;;;;;4969561;28;21043;-91
2022/01/31 04:56:47;;;;;;;9.10;1.57;;;2.80;99.90;;;;;;4969457;29;20059;-90
2022/01/31 04:59:14;;;;;;;9.67;2.30;;;2.90;99.90;;;;;;4958077;28;20528;-87
2022/01/31 05:01:42;;;;;;;17.73;3.67;;;2.90;99.90;;;;;;4945747;29;20055;-88
2022/01/31 05:04:09;;;;;;;17.80;4.23;;;2.80;99.90;;;;;;4955062;29;20062;-85
2022/01/31 05:06:36;;;;;;;14.70;2.90;;;2.80;99.90;;;;;;4949831;29;20191;-89
2022/01/31 05:09:03;;;;;;;14.93;2.63;;;2.70;99.90;;;;;;4951039;28;20047;-84
2022/01/31 05:11:32;;;;;;;9.57;2.67;;;2.70;99.90;;;;;;4955081;29;20059;-86
2022/01/31 05:14:00;;;;;;;6.80;1.77;;;2.60;99.90;;;;;;4951551;28;20070;-87
2022/01/31 05:16:26;;;;;;;16.40;3.50;;;2.60;99.90;;;;;;4929364;28;20118;-80
2022/01/31 05:18:52;;;;;;;11.27;2.13;;;2.60;99.90;;;;;;4942262;28;20141;-81
2022/01/31 05:21:18;;;;;;;9.00;2.10;;;2.60;99.90;;;;;;4945216;29;20055;-80
2022/01/31 05:23:46;;;;;;;10.53;3.30;;;2.60;99.90;;;;;;4945973;29;20485;-79
2022/01/31 05:26:13;;;;;;;15.00;2.63;;;2.50;99.90;;;;;;4948670;29;20047;-80
2022/01/31 05:28:39;;;;;;;13.87;2.00;;;2.50;99.90;;;;;;4953637;29;20500;-81
2022/01/31 05:31:07;;;;;;;5.97;1.50;;;2.50;99.90;;;;;;4955683;29;20059;-86
2022/01/31 05:33:33;;;;;;;18.63;1.80;;;2.60;99.90;;;;;;4954109;29;20199;-82
2022/01/31 05:36:00;;;;;;;9.67;1.73;;;2.60;99.90;;;;;;4952440;29;20063;-83
2022/01/31 05:38:26;;;;;;;11.60;3.03;;;2.60;99.90;;;;;;4954447;29;20055;-79
2022/01/31 05:40:52;;;;;;;12.20;2.47;;;2.50;99.90;;;;;;4953948;28;20059;-79
2022/01/31 05:43:19;;;;;;;9.03;2.77;;;2.50;99.90;;;;;;4953489;28;20114;-79
2022/01/31 05:45:46;;;;;;;10.57;2.60;;;2.50;99.90;;;;;;4951712;28;20062;-83
2022/01/31 05:48:18;;;;;;;5.70;2.07;;;2.50;99.90;;;;;;4958014;29;20065;-81
2022/01/31 05:50:45;;;;;;;12.68;3.10;;;2.50;99.90;;;;;;4953254;29;20063;-82
2022/01/31 05:53:11;;;;;;;10.93;2.33;;;2.40;99.90;;;;;;4955741;29;20043;-81
2022/01/31 05:55:38;;;;;;;17.77;2.80;;;2.50;99.90;;;;;;4954429;29;20062;-82
2022/01/31 05:58:04;;;;;;;19.13;3.00;;;2.50;99.90;;;;;;4942784;29;20493;-82
2022/01/31 06:00:30;;;;;;;9.27;3.83;;;2.40;99.90;;;;;;4959700;29;20054;-83
2022/01/31 06:02:58;;;;;;;13.70;3.00;;;2.50;99.90;;;;;;4955314;29;20121;-80
2022/01/31 06:05:25;;;;;;;12.27;2.80;;;2.50;99.90;;;;;;4952143;29;20138;-79
2022/01/31 06:07:51;;;;;;;12.27;2.20;;;2.40;99.90;;;;;;4953429;28;20442;-79
2022/01/31 06:10:18;;;;;;;13.53;3.30;;;2.40;99.90;;;;;;4954140;28;20049;-78
2022/01/31 06:12:45;;;;;;;11.23;2.07;;;2.40;99.90;;;;;;4964418;28;20046;-82
2022/01/31 06:15:11;;;;;;;13.70;2.90;;;2.40;99.90;;;;;;4953259;29;20581;-82
2022/01/31 06:17:37;;;;;;;11.03;2.37;;;2.40;99.90;;;;;;4946834;29;20063;-80
2022/01/31 06:20:05;;;;;;;12.77;2.63;;;2.40;99.90;;;;;;4948950;28;20058;-78
2022/01/31 06:22:32;;;;;;;4.33;1.87;;;2.40;99.90;;;;;;4959709;29;20047;-80
2022/01/31 06:24:58;;;;;;;14.67;2.27;;;2.40;99.90;;;;;;4966993;29;20070;-79
2022/01/31 06:27:24;;;;;;;8.20;1.80;;;2.30;99.90;;;;;;4967501;28;20055;-81
2022/01/31 06:29:50;;;;;;;8.50;1.90;;;2.30;99.90;;;;;;4956357;28;20055;-79
2022/01/31 06:32:18;;;;;;;7.27;2.40;;;2.30;99.90;;;;;;4963779;29;20051;-92
2022/01/31 06:34:45;;;;;;;8.43;1.70;;;2.40;99.90;;;;;;4955855;29;20067;-87
2022/01/31 06:37:11;;;;;;;14.90;2.87;;;2.30;99.90;;;;;;4934338;29;20058;-80
2022/01/31 06:39:38;;;;;;;13.47;3.57;;;2.30;99.90;;;;;;4953433;29;20425;-81
2022/01/31 06:42:05;;;;;;;13.77;3.27;;;2.30;99.90;;;;;;4954859;28;20083;-82
2022/01/31 06:44:32;;;;;;;15.97;3.00;;;2.40;99.90;;;;;;4956150;29;20058;-82
2022/01/31 06:46:58;;;;;;;5.70;2.60;;;2.30;99.90;;;;;;4955483;28;20058;-80
2022/01/31 06:49:24;;;;;;;13.23;3.30;;;2.30;99.90;;;;;;4951373;29;20142;-78
2022/01/31 06:51:50;;;;;;;7.13;1.93;;;2.30;99.90;;;;;;4954713;29;20117;-76
2022/01/31 06:54:16;;;;;;;8.80;2.67;;;2.40;99.90;;;;;;4952719;29;20063;-82
2022/01/31 06:56:45;;;;;;;11.37;2.37;;;2.40;99.90;;;;;;4957242;29;20201;-80
2022/01/31 06:59:11;;;;;;;12.37;3.30;;;2.40;99.90;;;;;;4939397;28;20055;-79
2022/01/31 07:01:37;;;;;;;13.50;2.53;;;2.40;99.90;;;;;;4961631;28;20054;-79
2022/01/31 07:04:03;;;;;;;4.77;2.13;;;2.40;99.90;;;;;;4953290;29;20059;-80
2022/01/31 07:06:30;;;;;;;5.93;2.23;;;2.40;99.90;;;;;;4952052;29;20055;-80
2022/01/31 07:08:56;;;;;;;9.60;2.53;;;2.30;99.90;;;;;;4953421;29;20056;-79
2022/01/31 07:11:26;;;;;;;12.73;3.57;;;2.30;99.90;;;;;;4953076;29;20087;-80
2022/01/31 07:14:01;;;;;;;15.23;2.63;;;2.30;99.90;;;;;;4953216;29;20051;-79
2022/01/31 07:16:28;;;;;;;8.40;1.97;;;2.30;99.90;;;;;;4952915;29;20069;-79
2022/01/31 07:18:59;;;;;;;8.13;2.87;;;2.30;99.90;;;;;;4951938;29;20081;-82
2022/01/31 07:21:33;;;;;;;5.50;1.60;;;2.20;99.90;;;;;;4953947;29;20074;-80
2022/01/31 07:24:06;;;;;;;7.13;2.43;;;2.30;99.90;;;;;;4960686;28;20613;-79
2022/01/31 07:26:32;;;;;;;4.90;1.27;;;2.30;99.90;;;;;;4953390;29;20117;-82
2022/01/31 07:29:00;;;;;;;8.57;2.57;;;2.30;99.90;;;;;;4954250;28;20051;-84
2022/01/31 07:31:26;;;;;;;9.97;2.53;;;2.40;99.90;;;;;;4958187;28;20066;-82
2022/01/31 07:33:52;;;;;;;7.00;1.27;;;2.30;99.90;;;;;;4957590;28;20066;-85
2022/01/31 07:36:19;;;;;;;8.20;2.23;;;2.30;99.90;;;;;;4955792;29;20138;-87
2022/01/31 07:38:45;;;;;;;13.50;2.27;;;2.40;99.90;;;;;;4953584;29;20418;-79
2022/01/31 07:41:14;;;;;;;11.53;1.77;;;2.50;99.90;;;;;;4951690;28;20486;-77
2022/01/31 07:43:43;;;;;;;9.27;1.93;;;2.50;99.90;;;;;;4956127;29;20079;-78
2022/01/31 07:46:11;;;;;;;8.00;2.50;;;2.50;99.90;;;;;;4956377;29;20058;-86
2022/01/31 07:48:37;;;;;;;15.27;2.30;;;2.50;99.90;;;;;;4958646;29;20066;-82
2022/01/31 07:51:03;;;;;;;6.73;1.93;;;2.50;99.90;;;;;;4958897;29;20051;-87
2022/01/31 07:53:42;;;;;;;10.23;3.43;;;2.50;99.90;;;;;;4961856;29;20051;-90
2022/01/31 07:56:09;;;;;;;13.53;2.97;;;2.50;99.90;;;;;;4958679;29;20074;-83
2022/01/31 07:58:35;;;;;;;9.90;2.37;;;2.50;99.90;;;;;;4957919;28;20118;-79
2022/01/31 08:01:03;;;;;;;6.53;1.97;;;2.50;99.90;;;;;;4955240;29;20441;-84
2022/01/31 08:03:31;;;;;;;10.50;2.77;;;2.60;99.90;;;;;;4954508;28;20047;-85
2022/01/31 08:05:57;;;;;;;15.10;3.40;;;2.60;99.90;;;;;;4956139;29;20055;-80
2022/01/31 08:08:24;;;;;;;10.33;2.77;;;2.60;99.90;;;;;;4955503;28;20055;-80
2022/01/31 08:10:50;;;;;;;7.50;3.13;;;2.60;99.90;;;;;;4954773;29;20078;-78
2022/01/31 08:13:17;;;;;;;13.57;2.10;;;2.60;99.90;;;;;;4955160;28;20538;-81
2022/01/31 08:15:49;;;;;;;7.27;2.30;;;2.70;99.90;;;;;;4955549;29;20059;-81
2022/01/31 08:18:15;;;;;;;9.70;2.08;;;2.70;99.90;;;;;;4955539;29;20473;-79
2022/01/31 08:20:42;;;;;;;5.93;2.90;;;2.80;99.90;;;;;;4954314;29;20088;-79
2022/01/31 08:23:10;;;;;;;14.00;3.73;;;2.80;99.90;;;;;;4954491;28;20043;-80
2022/01/31 08:25:37;;;;;;;11.50;2.93;;;2.70;99.90;;;;;;4951632;29;20146;-77
2022/01/31 08:28:09;;;;;;;20.03;4.53;;;2.70;99.90;;;;;;4956407;29;20047;-84
2022/01/31 08:30:42;;;;;;;8.37;3.50;;;2.80;99.90;;;;;;4952730;29;20090;-79
2022/01/31 08:33:14;;;;;;;20.13;3.97;;;2.80;99.90;;;;;;4953724;28;20043;-79
2022/01/31 08:35:50;;;;;;;;;;;2.80;99.90;;;;;;4954904;29;20463;-81
2022/01/31 08:38:18;;;;;;;15.23;3.17;;;2.80;99.90;;;;;;4956049;29;19977;-83
2022/01/31 08:40:45;;;;;;;9.10;2.80;;;3.00;99.90;;;;;;4956658;29;20058;-82
2022/01/31 08:43:14;;;;;;;17.50;5.13;;;2.90;99.90;;;;;;4939000;29;20471;-81
2022/01/31 08:45:40;;;;;;;8.67;4.37;;;3.00;99.90;;;;;;4958339;28;20402;-82
2022/01/31 08:48:10;;;;;;;13.57;4.30;;;3.10;99.90;;;;;;4967334;28;20459;-82
2022/01/31 08:50:38;;;;;;;27.07;3.47;;;3.00;99.90;;;;;;4939253;29;20113;-84
2022/01/31 08:53:04;;;;;;;5.13;3.67;;;3.10;99.90;;;;;;4960373;28;20449;-77
2022/01/31 08:55:30;;;;;;;14.70;2.83;;;3.00;99.90;;;;;;4953935;29;20106;-79
2022/01/31 08:57:57;;;;;;;15.50;4.23;;;3.10;99.90;;;;;;4954491;29;20142;-77
2022/01/31 09:00:33;;;;;;;12.60;3.47;;;3.10;99.90;;;;;;4955536;29;20043;-82
2022/01/31 09:03:06;;;;;;;15.73;2.57;;;3.10;99.90;;;;;;4954674;29;20078;-82
2022/01/31 09:05:32;;;;;;;13.43;3.53;;;3.20;99.90;;;;;;4956232;29;20390;-85
2022/01/31 09:07:58;;;;;;;10.70;2.60;;;3.30;99.90;;;;;;4956124;28;20051;-81
2022/01/31 09:10:25;;;;;;;6.73;2.57;;;3.30;99.90;;;;;;4953486;29;20049;-82
2022/01/31 09:12:51;;;;;;;14.33;3.87;;;3.40;99.90;;;;;;4957120;29;20063;-84
2022/01/31 09:15:18;;;;;;;9.27;3.87;;;3.60;99.90;;;;;;4938317;28;20059;-83
2022/01/31 09:17:44;;;;;;;6.83;2.60;;;3.60;99.90;;;;;;4955165;29;20051;-85
2022/01/31 09:20:12;;;;;;;17.13;11.47;;;3.70;99.90;;;;;;4936512;29;20051;-82
2022/01/31 09:22:43;;;;;;;31.67;15.53;;;3.80;99.90;;;;;;4955187;29;20051;-81
2022/01/31 09:25:28;;;;;;;19.02;8.15;;;3.80;99.90;;;;;;4959856;29;20054;-82
2022/01/31 09:27:55;;;;;;;6.47;3.70;;;3.90;99.90;;;;;;4950734;29;20418;-81
2022/01/31 09:30:22;;;;;;;10.63;4.03;;;4.00;99.90;;;;;;4954833;29;20047;-80
2022/01/31 09:32:48;;;;;;;11.20;3.90;;;4.00;99.90;;;;;;4956515;29;20070;-79
2022/01/31 09:35:15;;;;;;;6.67;2.80;;;3.90;99.90;;;;;;4955066;29;20067;-82
2022/01/31 09:37:41;;;;;;;12.63;4.30;;;4.00;99.90;;;;;;4958782;28;20048;-81
2022/01/31 09:40:12;;;;;;;13.17;5.40;;;4.00;99.90;;;;;;4966609;29;20043;-81
2022/01/31 09:42:50;;;;;;;12.40;2.45;;;4.00;99.90;;;;;;4968994;29;20078;-81
2022/01/31 09:45:33;;;;;;;12.33;2.23;;;3.90;99.90;;;;;;4960564;29;20112;-79
2022/01/31 09:50:43;;;;;;;101.83;53.70;;;3.70;99.90;;;;;;4941662;29;20046;-82
2022/01/31 09:53:10;;;;;;;13.03;2.83;;;3.60;99.90;;;;;;4954433;29;20050;-79
2022/01/31 09:55:37;;;;;;;7.00;2.17;;;3.60;99.90;;;;;;4954629;29;20059;-78
2022/01/31 09:58:06;;;;;;;8.63;2.60;;;3.60;99.90;;;;;;4956213;29;20050;-81
2022/01/31 10:00:38;;;;;;;13.13;3.40;;;3.60;99.90;;;;;;4958479;28;20405;-81
2022/01/31 10:03:06;;;;;;;7.10;3.15;;;3.60;99.90;;;;;;4957836;29;20525;-82
2022/01/31 10:05:34;;;;;;;7.43;3.37;;;3.70;99.90;;;;;;4956965;28;20079;-82
2022/01/31 10:08:10;;;;;;;13.00;3.43;;;3.80;99.90;;;;;;4960005;29;20043;-79
2022/01/31 10:10:40;;;;;;;9.87;4.17;;;3.80;99.90;;;;;;4954483;28;20066;-79
2022/01/31 10:16:32;;;;;;;5.70;2.93;;;4.00;99.90;;;;;;4951385;29;20442;-84
2022/01/31 10:19:05;;;;;;;12.10;3.83;;;4.20;99.90;;;;;;4959070;28;20043;-83
2022/01/31 10:21:32;;;;;;;12.80;2.53;;;4.30;99.90;;;;;;4954535;28;20055;-86
2022/01/31 10:24:01;;;;;;;11.63;3.00;;;4.20;99.90;;;;;;4950182;29;20663;-83
2022/01/31 10:26:31;;;;;;;16.50;4.30;;;4.30;99.90;;;;;;4954019;29;20104;-86
2022/01/31 10:29:11;;;;;;;18.63;2.90;;;4.40;99.90;;;;;;4952632;28;20051;-84
2022/01/31 10:31:57;;;;;;;12.07;2.20;;;4.40;99.90;;;;;;4950654;29;20047;-88
2022/01/31 10:34:25;;;;;;;9.83;2.57;;;4.40;99.90;;;;;;4951762;29;20095;-84
2022/01/31 10:51:31;;;;;;;17.80;3.37;;;4.30;99.90;;;;;;4950836;29;20150;-78
2022/01/31 10:54:04;;;;;;;13.60;3.87;;;4.40;99.90;;;;;;4950324;29;20375;-80
2022/01/31 10:56:37;;;;;;;9.90;3.87;;;4.40;99.90;;;;;;4949699;29;20059;-78
2022/01/31 10:59:07;;;;;;;8.60;4.07;;;4.40;99.90;;;;;;4952293;29;20118;-78
2022/01/31 11:01:34;;;;;;;11.37;3.00;;;4.20;99.90;;;;;;4950039;28;20059;-79
2022/01/31 11:04:04;;;;;;;9.33;2.87;;;4.20;99.90;;;;;;4953217;28;20047;-79
2022/01/31 11:06:31;;;;;;;17.60;3.43;;;4.20;99.90;;;;;;4952447;29;20067;-81
2022/01/31 11:09:03;;;;;;;10.73;2.17;;;4.20;99.90;;;;;;4953600;28;20063;-80
2022/01/31 11:11:31;;;;;;;10.27;3.90;;;4.30;99.90;;;;;;4953677;29;20491;-80
2022/01/31 11:13:59;;;;;;;11.90;2.67;;;4.30;99.90;;;;;;4953075;28;20054;-86
2022/01/31 11:16:27;;;;;;;10.53;1.97;;;4.30;99.90;;;;;;4938102;29;20047;-84
2022/01/31 11:18:56;;;;;;;19.77;4.53;;;4.40;99.90;;;;;;4955242;29;20043;-81
2022/01/31 11:21:31;;;;;;;10.30;3.60;;;4.40;99.90;;;;;;4967836;28;20142;-87
2022/01/31 11:24:02;;;;;;;11.30;3.30;;;4.30;99.90;;;;;;4977782;28;20075;-86
2022/01/31 11:26:38;;;;;;;9.63;3.50;;;4.40;99.90;;;;;;4977504;28;20043;-88
2022/01/31 11:29:06;;;;;;;5.43;2.50;;;4.40;99.90;;;;;;4966673;29;20071;-84
2022/01/31 11:31:36;;;;;;;11.67;3.53;;;4.50;99.90;;;;;;4973091;28;20077;-81
2022/01/31 11:34:05;;;;;;;35.47;13.13;;;4.60;99.90;;;;;;4970368;29;20059;-85
2022/01/31 11:36:33;;;;;;;25.80;12.67;;;4.50;99.90;;;;;;4961223;29;20058;-82
2022/01/31 11:39:00;;;;;;;8.17;3.33;;;4.70;99.90;;;;;;4961010;29;20044;-81
2022/01/31 11:41:30;;;;;;;9.67;4.17;;;4.80;99.90;;;;;;4959693;29;20403;-83
2022/01/31 11:44:06;;;;;;;11.17;3.03;;;4.80;99.90;;;;;;4961444;28;20050;-81
2022/01/31 11:46:40;;;;;;;8.27;3.10;;;4.90;99.90;;;;;;4958732;29;20059;-87
2022/01/31 11:49:09;;;;;;;8.67;2.60;;;5.00;99.90;;;;;;4959613;29;20047;-80
2022/01/31 11:51:50;;;;;;;7.87;2.97;;;5.20;99.90;;;;;;4959760;29;20051;-79
2022/01/31 11:54:23;;;;;;;6.33;2.73;;;5.10;99.90;;;;;;4951697;29;20051;-79
2022/01/31 11:56:52;;;;;;;19.93;5.37;;;5.20;99.90;;;;;;4962387;29;20070;-81
2022/01/31 11:59:21;;;;;;;6.37;3.70;;;5.30;99.90;;;;;;4964041;28;20078;-81
2022/01/31 12:01:50;;;;;;;6.63;2.60;;;5.30;99.90;;;;;;4962982;29;20576;-79
2022/01/31 12:04:16;;;;;;;6.73;3.10;;;5.20;99.90;;;;;;4958687;29;20524;-79
2022/01/31 12:06:43;;;;;;;7.30;2.37;;;5.20;99.90;;;;;;4957044;29;20529;-79
2022/01/31 12:09:16;;;;;;;13.40;4.10;;;5.10;99.90;;;;;;4960433;29;20074;-79
2022/01/31 12:12:32;;;;;;;9.27;3.07;;;5.10;99.90;;;;;;4955451;29;20486;-82
2022/01/31 12:15:32;;;;;;;9.30;2.93;;;5.20;99.90;;;;;;4956563;29;20070;-80
2022/01/31 12:18:46;;;;;;;5.53;2.33;;;5.10;99.90;;;;;;4956893;28;20051;-80
2022/01/31 12:26:58;;;;;;;6.83;2.03;;;5.30;99.90;;;;;;4942804;29;20067;-80
2022/01/31 12:29:26;;;;;;;9.50;3.73;;;5.40;99.90;;;;;;4945371;29;20063;-79
2022/01/31 12:31:54;;;;;;;6.03;1.93;;;5.70;99.90;;;;;;4954245;29;20055;-84
2022/01/31 12:34:35;;;;;;;8.43;3.40;;;5.90;99.90;;;;;;4952929;29;20505;-79
2022/01/31 12:37:03;;;;;;;6.75;2.95;;;6.20;99.90;;;;;;4954359;29;20035;-76
2022/01/31 12:39:58;;;;;;;9.60;5.20;;;6.10;99.90;;;;;;4954294;29;20106;-78
2022/01/31 12:42:55;;;;;;;8.53;2.63;;;6.30;99.90;;;;;;4955107;29;20070;-79
2022/01/31 12:45:24;;;;;;;8.13;2.73;;;6.40;99.90;;;;;;4953260;29;20051;-77
2022/01/31 12:48:29;;;;;;;14.13;3.93;;;6.60;99.90;;;;;;4939671;29;20059;-85
2022/01/31 12:51:07;;;;;;;123.70;61.67;;;6.60;99.90;;;;;;4967735;28;20066;-80
2022/01/31 12:53:49;;;;;;;32.80;16.03;;;6.60;99.90;;;;;;4970194;28;20082;-86
2022/01/31 12:56:30;;;;;;;16.85;6.35;;;6.60;99.90;;;;;;4955275;29;20088;-82
2022/01/31 12:59:00;;;;;;;15.87;3.27;;;6.70;99.90;;;;;;4957033;29;20059;-80
2022/01/31 13:01:30;;;;;;;8.43;3.57;;;6.70;99.90;;;;;;4952526;29;20342;-79
2022/01/31 13:04:00;;;;;;;8.37;3.30;;;6.60;99.90;;;;;;4955240;29;20066;-81
2022/01/31 13:06:33;;;;;;;8.00;2.37;;;6.60;99.90;;;;;;4955678;29;20051;-79
2022/01/31 13:09:10;;;;;;;9.97;4.53;;;6.60;99.90;;;;;;4959173;28;20430;-78
2022/01/31 13:11:39;;;;;;;6.20;1.80;;;6.50;99.90;;;;;;4953848;28;20116;-78
2022/01/31 13:14:08;;;;;;;10.37;3.80;;;6.70;99.90;;;;;;4952362;29;21569;-76
2022/01/31 13:16:43;;;;;;;49.10;17.38;;;6.80;99.90;;;;;;4953727;29;20095;-79
2022/01/31 13:19:14;;;;;;;15.70;6.63;;;6.90;99.90;;;;;;4955157;29;20047;-77
2022/01/31 13:21:51;;;;;;;6.40;2.72;;;6.80;99.90;;;;;;4958500;29;20055;-87
2022/01/31 13:24:20;;;;;;;11.57;3.65;;;6.60;99.90;;;;;;4960196;29;20055;-88
2022/01/31 13:27:02;;;;;;;19.83;4.45;;;6.60;99.90;;;;;;4961533;29;20062;-88
2022/01/31 13:29:34;;;;;;;7.55;2.13;;;6.50;99.90;;;;;;4962837;28;20123;-87